Time;durP1;ratioP1;P1;durP2;ratioP2;P2;SDS_P1;SDS_P2;PMS_P1;PMS_P2;Temp;Humidity;BMP_temperature;BMP_pressure;BME280_temperature;BME280_humidity;BME280_pressure;Samples;Min_cycle;Max_cycle;Signal;HPM_P1;HPM_P2
2022/05/05 00:00:56;;;;;;;16.35;9.55;;;14.30;99.90;;;;;;5056303;28;20102;-45
2022/05/05 00:03:22;;;;;;;11.85;9.68;;;14.30;99.90;;;;;;5051916;28;20074;-45
2022/05/05 00:05:48;;;;;;;16.83;10.60;;;14.10;99.90;;;;;;5055498;28;20025;-46
2022/05/05 00:08:13;;;;;;;14.95;10.35;;;13.70;99.90;;;;;;5036862;28;20381;-46
2022/05/05 00:16:08;;;;;;;13.75;11.13;;;13.40;99.90;;;;;;5052742;28;20353;-45
2022/05/05 00:18:34;;;;;;;12.85;10.27;;;13.70;99.90;;;;;;5055247;28;20025;-45
2022/05/05 00:21:00;;;;;;;15.75;10.63;;;13.40;99.90;;;;;;5054958;28;20073;-45
2022/05/05 00:23:26;;;;;;;16.50;11.38;;;13.10;99.90;;;;;;5053106;28;20039;-45
2022/05/05 00:25:52;;;;;;;20.20;10.85;;;13.10;99.90;;;;;;5055183;28;20024;-45
2022/05/05 00:28:18;;;;;;;12.65;10.63;;;12.80;99.90;;;;;;5055967;28;20465;-45
2022/05/05 00:30:43;;;;;;;12.20;10.10;;;12.70;99.90;;;;;;5055027;28;20158;-45
2022/05/05 00:33:09;;;;;;;13.85;10.38;;;12.90;99.90;;;;;;5034395;28;20193;-45
2022/05/05 00:35:35;;;;;;;13.68;9.80;;;13.20;99.90;;;;;;5054919;28;20036;-45
2022/05/05 00:38:01;;;;;;;12.88;10.57;;;13.40;99.90;;;;;;5055497;28;20526;-45
2022/05/05 00:40:26;;;;;;;18.33;11.77;;;13.50;99.90;;;;;;5054942;28;20036;-45
2022/05/05 00:42:52;;;;;;;12.73;11.32;;;13.50;99.90;;;;;;5024895;28;20394;-45
2022/05/05 00:45:18;;;;;;;15.98;9.65;;;13.70;99.90;;;;;;5034296;28;20037;-45
2022/05/05 00:47:44;;;;;;;12.40;10.30;;;13.50;99.90;;;;;;5053704;28;20039;-46
2022/05/05 00:50:11;;;;;;;17.73;10.70;;;13.10;99.90;;;;;;5053530;28;20921;-45
2022/05/05 00:52:37;;;;;;;16.10;10.15;;;12.80;99.90;;;;;;5056224;28;20115;-44
2022/05/05 00:55:03;;;;;;;17.20;11.07;;;12.60;99.90;;;;;;5054755;28;20032;-45
2022/05/05 00:57:30;;;;;;;12.68;10.25;;;12.70;99.90;;;;;;5053442;28;20457;-45
2022/05/05 00:59:59;;;;;;;18.50;11.48;;;12.90;99.90;;;;;;5053911;28;20029;-46
2022/05/05 01:02:25;;;;;;;14.90;10.35;;;13.10;99.90;;;;;;5056675;28;20502;-46
2022/05/05 01:04:51;;;;;;;15.52;10.48;;;13.20;99.90;;;;;;5053301;28;20029;-45
2022/05/05 01:07:18;;;;;;;15.45;11.70;;;13.30;99.90;;;;;;5011260;28;20082;-46
2022/05/05 01:09:44;;;;;;;19.17;11.40;;;13.30;99.90;;;;;;5056082;28;20045;-44
2022/05/05 01:12:10;;;;;;;16.90;10.65;;;13.10;99.90;;;;;;5020766;28;20033;-46
2022/05/05 01:14:37;;;;;;;14.07;11.32;;;13.30;99.90;;;;;;5055044;28;20384;-46
2022/05/05 01:17:03;;;;;;;14.75;11.38;;;13.30;99.90;;;;;;5058960;28;20034;-45
2022/05/05 01:19:29;;;;;;;16.60;11.07;;;13.40;99.90;;;;;;5053292;28;20021;-45
2022/05/05 01:21:57;;;;;;;15.45;10.82;;;13.50;99.90;;;;;;5053159;28;20029;-46
2022/05/05 01:28:10;;;;;;;17.27;11.15;;;13.50;99.90;;;;;;5056616;28;20089;-45
2022/05/05 01:29:54;;;;;;;14.25;10.50;;;13.50;99.90;;;;;;5057737;28;20043;-46
2022/05/05 01:32:20;;;;;;;15.60;10.52;;;13.50;99.90;;;;;;5058311;28;20024;-45
2022/05/05 01:34:47;;;;;;;14.90;10.82;;;13.30;99.90;;;;;;5056208;28;20511;-45
2022/05/05 01:37:13;;;;;;;15.98;11.20;;;13.40;99.90;;;;;;5039836;28;20092;-45
2022/05/05 01:39:39;;;;;;;13.20;11.18;;;13.40;99.90;;;;;;5061468;28;20025;-46
2022/05/05 01:42:05;;;;;;;13.43;10.43;;;13.40;99.90;;;;;;5056927;28;20043;-45
2022/05/05 01:44:31;;;;;;;11.52;9.93;;;13.40;99.90;;;;;;5056784;28;20055;-45
2022/05/05 01:46:57;;;;;;;13.15;9.68;;;13.50;99.90;;;;;;5059652;28;20724;-45
2022/05/05 01:49:22;;;;;;;17.13;10.85;;;13.50;99.90;;;;;;5055844;28;20033;-45
2022/05/05 01:51:48;;;;;;;16.15;11.23;;;13.30;99.90;;;;;;5059997;28;20099;-45
2022/05/05 01:54:14;;;;;;;16.75;11.20;;;13.20;99.90;;;;;;5058714;28;20052;-45
2022/05/05 01:56:40;;;;;;;14.65;10.82;;;13.30;99.90;;;;;;5055940;28;20468;-46
2022/05/05 01:59:06;;;;;;;16.27;11.63;;;13.20;99.90;;;;;;5040023;28;20513;-46
2022/05/05 02:01:33;;;;;;;14.13;11.10;;;13.10;99.90;;;;;;5060203;28;20033;-45
2022/05/05 02:04:01;;;;;;;14.95;10.40;;;13.20;99.90;;;;;;5058528;28;20036;-45
2022/05/05 02:06:26;;;;;;;15.27;10.90;;;13.10;99.90;;;;;;5055761;28;20033;-45
2022/05/05 02:08:52;;;;;;;15.10;11.00;;;12.90;99.90;;;;;;5039713;28;20654;-45
2022/05/05 02:11:18;;;;;;;22.42;12.65;;;12.80;99.90;;;;;;5039098;28;20044;-45
2022/05/05 02:13:44;;;;;;;12.82;11.52;;;12.70;99.90;;;;;;5061154;28;20085;-46
2022/05/05 02:16:10;;;;;;;16.38;11.73;;;12.70;99.90;;;;;;5056853;28;20025;-45
2022/05/05 02:18:35;;;;;;;13.32;10.63;;;12.70;99.90;;;;;;5055570;28;20025;-45
2022/05/05 02:21:01;;;;;;;14.10;12.02;;;12.80;99.90;;;;;;5058221;28;20036;-45
2022/05/05 02:23:27;;;;;;;13.20;10.25;;;12.90;99.90;;;;;;5039022;28;20041;-46
2022/05/05 02:25:53;;;;;;;18.05;11.20;;;12.90;99.90;;;;;;5036699;28;20040;-45
2022/05/05 02:28:19;;;;;;;11.88;9.85;;;12.90;99.90;;;;;;5040157;28;20071;-47
2022/05/05 02:30:45;;;;;;;15.68;10.70;;;13.00;99.90;;;;;;5057274;28;20079;-45
2022/05/05 02:33:11;;;;;;;15.55;9.85;;;12.90;99.90;;;;;;5057901;28;20035;-45
2022/05/05 02:35:36;;;;;;;12.15;9.30;;;12.90;99.90;;;;;;5059445;28;20095;-45
2022/05/05 02:40:47;;;;;;;13.93;9.40;;;12.80;99.90;;;;;;5055541;28;21101;-45
2022/05/05 02:43:13;;;;;;;13.02;10.15;;;12.80;99.90;;;;;;5050338;28;20025;-46
2022/05/05 02:45:39;;;;;;;16.38;10.60;;;12.80;99.90;;;;;;5036267;28;20064;-45
2022/05/05 02:48:05;;;;;;;14.32;10.23;;;12.90;99.90;;;;;;5058614;28;20036;-45
2022/05/05 02:50:31;;;;;;;18.73;10.68;;;12.90;99.90;;;;;;5087604;28;20086;-46
2022/05/05 02:52:57;;;;;;;18.17;10.98;;;13.00;99.90;;;;;;5055812;28;20982;-46
2022/05/05 02:55:23;;;;;;;19.50;9.95;;;12.90;99.90;;;;;;5031272;28;20461;-45
2022/05/05 02:57:50;;;;;;;11.45;10.25;;;13.00;99.90;;;;;;5055642;28;20468;-45
2022/05/05 03:00:16;;;;;;;12.02;9.15;;;13.00;99.90;;;;;;5054931;28;20033;-45
2022/05/05 03:02:43;;;;;;;12.48;8.93;;;13.00;99.90;;;;;;5053240;28;20029;-45
2022/05/05 03:05:13;;;;;;;10.43;8.90;;;13.00;99.90;;;;;;5055961;28;20025;-46
2022/05/05 03:07:39;;;;;;;11.43;9.75;;;13.10;99.90;;;;;;5055864;28;20040;-45
2022/05/05 03:10:06;;;;;;;13.05;9.63;;;12.90;99.90;;;;;;5055378;28;20045;-44
2022/05/05 03:12:31;;;;;;;12.25;9.55;;;12.90;99.90;;;;;;5014514;28;20087;-46
2022/05/05 03:14:57;;;;;;;12.80;9.32;;;12.90;99.90;;;;;;5060243;28;20686;-45
2022/05/05 03:17:23;;;;;;;12.13;10.05;;;12.90;99.90;;;;;;5053223;28;20037;-45
2022/05/05 03:19:49;;;;;;;11.90;8.88;;;12.50;99.90;;;;;;5057733;28;20479;-45
2022/05/05 03:22:14;;;;;;;13.43;10.18;;;12.20;99.90;;;;;;5054449;28;20033;-45
2022/05/05 03:24:40;;;;;;;12.68;9.88;;;12.20;99.90;;;;;;5059388;28;20021;-44
2022/05/05 03:27:06;;;;;;;13.23;10.52;;;;;;;;;;5056807;28;20537;-45
2022/05/05 03:29:33;;;;;;;15.60;9.25;;;;;;;;;;5036057;28;20037;-45
2022/05/05 03:31:59;;;;;;;12.80;9.30;;;11.90;99.90;;;;;;5055637;28;20036;-45
2022/05/05 03:34:25;;;;;;;12.45;9.90;;;11.90;99.90;;;;;;5058625;28;20032;-45
2022/05/05 03:36:50;;;;;;;11.73;9.40;;;11.80;99.90;;;;;;5017956;28;20037;-45
2022/05/05 03:39:16;;;;;;;14.60;9.40;;;11.90;99.90;;;;;;5054104;28;20021;-45
2022/05/05 03:41:42;;;;;;;10.40;8.20;;;11.70;99.90;;;;;;5056553;28;20033;-45
2022/05/05 03:44:08;;;;;;;9.27;8.27;;;11.40;99.90;;;;;;5054562;28;20032;-45
2022/05/05 03:46:34;;;;;;;11.88;8.65;;;11.00;99.90;;;;;;5056616;28;20021;-45
2022/05/05 03:48:59;;;;;;;12.15;8.27;;;10.90;99.90;;;;;;5062500;28;20036;-46
2022/05/05 03:51:25;;;;;;;11.43;8.82;;;10.90;99.90;;;;;;5054359;28;20029;-46
2022/05/05 03:53:54;;;;;;;10.68;9.23;;;11.10;99.90;;;;;;5055842;28;20049;-46
2022/05/05 03:56:20;;;;;;;20.15;9.65;;;11.40;99.90;;;;;;5056597;28;20033;-45
2022/05/05 03:58:46;;;;;;;11.80;8.35;;;11.70;99.90;;;;;;5059508;28;20068;-47
2022/05/05 04:01:12;;;;;;;18.00;8.95;;;12.00;99.90;;;;;;5053279;28;20128;-46
2022/05/05 04:03:43;;;;;;;18.20;9.68;;;12.10;99.90;;;;;;5057353;28;20107;-47
2022/05/05 04:06:10;;;;;;;16.83;9.02;;;12.30;99.90;;;;;;5055043;28;20469;-45
2022/05/05 04:08:37;;;;;;;12.07;8.98;;;12.40;99.90;;;;;;5055775;28;20392;-46
2022/05/05 04:11:07;;;;;;;12.68;8.68;;;12.50;99.90;;;;;;5057079;28;20441;-47
2022/05/05 04:13:33;;;;;;;11.73;8.27;;;12.60;99.90;;;;;;5053219;28;20441;-45
2022/05/05 04:15:59;;;;;;;11.02;8.80;;;12.70;99.90;;;;;;5010570;28;20043;-46
2022/05/05 04:18:25;;;;;;;11.48;9.02;;;12.80;99.90;;;;;;5028096;28;20037;-46
2022/05/05 04:20:51;;;;;;;17.38;10.00;;;12.90;99.90;;;;;;5056756;28;20461;-45
2022/05/05 04:23:16;;;;;;;12.52;8.98;;;12.90;99.90;;;;;;5052651;28;20063;-47
2022/05/05 04:25:44;;;;;;;12.02;8.55;;;13.00;99.90;;;;;;5048476;28;20049;-46
2022/05/05 04:28:11;;;;;;;9.23;8.00;;;13.10;99.90;;;;;;5032449;28;20033;-45
2022/05/05 04:30:39;;;;;;;11.93;8.55;;;13.20;99.90;;;;;;5053481;28;20580;-46
2022/05/05 04:33:06;;;;;;;17.83;8.52;;;13.30;99.90;;;;;;5036191;28;20541;-46
2022/05/05 04:35:31;;;;;;;11.65;8.65;;;13.10;99.90;;;;;;5052409;28;20061;-46
2022/05/05 04:37:58;;;;;;;10.43;8.60;;;13.00;99.90;;;;;;5056047;28;20061;-46
2022/05/05 04:40:23;;;;;;;14.57;8.73;;;13.00;99.90;;;;;;5018760;28;20071;-46
2022/05/05 04:42:49;;;;;;;14.50;8.77;;;13.20;99.90;;;;;;5036044;28;20060;-45
2022/05/05 04:45:15;;;;;;;16.02;8.85;;;13.50;99.90;;;;;;5056802;28;20040;-45
2022/05/05 04:47:42;;;;;;;13.75;9.50;;;13.60;99.90;;;;;;5052560;28;20041;-45
2022/05/05 04:50:09;;;;;;;14.90;9.52;;;13.70;99.90;;;;;;5061391;28;20473;-45
2022/05/05 04:52:35;;;;;;;12.75;9.25;;;13.90;99.90;;;;;;5017818;28;20041;-45
2022/05/05 04:55:00;;;;;;;14.65;9.60;;;14.00;99.90;;;;;;5055027;28;20040;-45
2022/05/05 04:57:26;;;;;;;15.90;10.25;;;14.10;99.90;;;;;;5054632;28;20029;-45
2022/05/05 04:59:53;;;;;;;12.70;9.95;;;14.20;99.90;;;;;;5033485;28;20191;-45
2022/05/05 05:02:19;;;;;;;17.17;10.82;;;;;;;;;;5053685;28;20036;-45
2022/05/05 05:04:45;;;;;;;12.77;11.35;;;14.50;99.90;;;;;;5054901;28;20023;-46
2022/05/05 05:07:11;;;;;;;13.57;11.15;;;14.50;99.90;;;;;;5052221;28;20029;-46
2022/05/05 05:09:37;;;;;;;12.60;11.23;;;14.60;99.90;;;;;;5037849;28;20477;-46
2022/05/05 05:12:03;;;;;;;14.50;11.65;;;14.70;99.90;;;;;;5032929;28;20410;-46
2022/05/05 05:14:29;;;;;;;14.25;11.82;;;14.80;99.90;;;;;;5050507;28;20936;-45
2022/05/05 05:16:55;;;;;;;16.02;11.63;;;14.80;99.90;;;;;;5068890;28;20450;-46
2022/05/05 05:19:21;;;;;;;15.93;10.68;;;14.90;99.90;;;;;;5052302;28;20017;-48
2022/05/05 05:21:47;;;;;;;19.17;12.43;;;15.10;99.90;;;;;;5034072;28;20040;-46
2022/05/05 05:24:13;;;;;;;13.63;10.80;;;15.30;99.90;;;;;;5033324;28;20598;-45
2022/05/05 05:26:39;;;;;;;17.88;11.43;;;15.40;99.90;;;;;;5061306;28;20028;-46
2022/05/05 05:29:05;;;;;;;17.10;11.90;;;;;;;;;;5056081;28;20039;-47
2022/05/05 05:31:31;;;;;;;13.35;11.50;;;15.90;99.90;;;;;;5047867;28;20033;-45
2022/05/05 05:33:57;;;;;;;13.27;10.90;;;15.90;99.90;;;;;;5051505;28;20021;-46
2022/05/05 05:36:23;;;;;;;14.13;11.68;;;16.10;99.90;;;;;;5051661;28;20475;-47
2022/05/05 05:38:49;;;;;;;18.08;12.75;;;16.20;99.90;;;;;;5051929;28;20071;-45
2022/05/05 05:41:14;;;;;;;14.98;11.63;;;16.40;99.90;;;;;;5053144;28;20047;-46
2022/05/05 05:43:40;;;;;;;14.05;11.65;;;16.50;99.90;;;;;;5043193;28;20127;-47
2022/05/05 05:46:06;;;;;;;15.85;11.68;;;16.70;99.90;;;;;;5032763;28;20033;-49
2022/05/05 05:48:32;;;;;;;12.82;10.88;;;16.90;99.90;;;;;;5045447;28;20091;-44
2022/05/05 05:50:58;;;;;;;13.70;11.13;;;17.00;99.90;;;;;;5016335;28;20060;-45
2022/05/05 05:53:23;;;;;;;12.55;10.82;;;17.10;99.90;;;;;;5026857;28;20045;-44
2022/05/05 05:55:49;;;;;;;12.65;11.45;;;17.30;99.90;;;;;;5053158;28;20021;-45
2022/05/05 05:58:15;;;;;;;16.70;11.70;;;17.30;99.90;;;;;;5058764;28;20058;-44
2022/05/05 06:00:40;;;;;;;16.10;11.98;;;17.60;99.90;;;;;;5035201;28;20364;-45
2022/05/05 06:05:51;;;;;;;14.40;11.18;;;17.90;99.90;;;;;;5052214;28;20366;-46
2022/05/05 06:08:17;;;;;;;14.82;11.75;;;18.00;99.90;;;;;;5050430;28;20025;-45
2022/05/05 06:10:43;;;;;;;19.90;12.15;;;18.00;99.90;;;;;;5051340;28;20455;-46
2022/05/05 06:13:09;;;;;;;16.17;12.25;;;18.30;99.90;;;;;;5050484;28;20473;-46
2022/05/05 06:15:35;;;;;;;31.98;13.05;;;18.50;99.90;;;;;;5054692;28;20075;-45
2022/05/05 06:18:01;;;;;;;20.38;11.25;;;18.50;99.90;;;;;;5059277;28;20152;-46
2022/05/05 06:20:27;;;;;;;13.32;11.00;;;18.70;99.90;;;;;;5059729;28;20029;-45
2022/05/05 06:22:52;;;;;;;13.50;10.88;;;19.20;99.90;;;;;;5054883;28;20037;-45
2022/05/05 06:25:23;;;;;;;18.08;11.50;;;19.50;99.90;;;;;;5037953;28;20089;-45
2022/05/05 06:27:49;;;;;;;21.80;10.95;;;19.60;99.90;;;;;;5052940;28;20041;-45
2022/05/05 06:30:15;;;;;;;15.85;10.25;;;19.80;99.90;;;;;;5055051;28;20040;-45
2022/05/05 06:32:41;;;;;;;15.73;10.75;;;20.10;99.90;;;;;;5040224;28;20059;-45
2022/05/05 06:35:07;;;;;;;25.95;10.95;;;20.40;99.90;;;;;;5054960;28;20608;-45
2022/05/05 06:37:33;;;;;;;16.13;10.80;;;20.70;99.90;;;;;;5067190;28;20033;-46
2022/05/05 06:40:00;;;;;;;14.02;10.68;;;20.80;99.90;;;;;;5034065;28;20032;-45
2022/05/05 06:42:27;;;;;;;15.38;11.23;;;;;;;;;;5056347;28;20032;-45
2022/05/05 06:44:53;;;;;;;15.50;9.90;;;21.20;99.90;;;;;;5057459;28;20032;-45
2022/05/05 06:47:19;;;;;;;13.98;9.93;;;21.30;99.90;;;;;;5059475;28;20431;-46
2022/05/05 06:49:44;;;;;;;10.43;8.93;;;21.50;99.90;;;;;;5036530;28;20123;-46
2022/05/05 06:52:10;;;;;;;10.60;8.23;;;21.70;99.90;;;;;;5058618;28;20475;-47
2022/05/05 06:54:36;;;;;;;18.38;10.20;;;21.80;99.90;;;;;;5059966;28;20096;-45
2022/05/05 06:57:02;;;;;;;13.07;8.85;;;22.20;99.90;;;;;;5053949;28;20040;-45
2022/05/05 06:59:28;;;;;;;11.75;7.57;;;22.20;99.90;;;;;;5056405;28;20075;-45
2022/05/05 07:01:54;;;;;;;11.98;8.23;;;22.60;99.90;;;;;;5055282;28;20452;-46
2022/05/05 07:07:13;;;;;;;12.02;8.02;;;;;;;;;;5055466;28;20044;-47
2022/05/05 07:12:30;;;;;;;12.45;7.63;;;;;;;;;;5054518;28;20131;-46
2022/05/05 07:14:56;;;;;;;11.70;7.72;;;23.50;99.90;;;;;;5056877;28;20469;-45
2022/05/05 07:17:23;;;;;;;10.95;7.55;;;23.50;99.90;;;;;;5057711;28;20082;-45
2022/05/05 07:19:49;;;;;;;14.27;8.32;;;23.70;99.90;;;;;;5054711;28;20434;-46
2022/05/05 07:22:15;;;;;;;10.98;7.18;;;23.70;99.90;;;;;;5054068;28;20028;-46
2022/05/05 07:24:41;;;;;;;10.43;8.18;;;;;;;;;;5055539;28;20468;-46
2022/05/05 07:27:07;;;;;;;21.05;9.32;;;24.20;99.90;;;;;;5033866;28;20041;-46
2022/05/05 07:29:34;;;;;;;11.95;8.35;;;24.10;99.90;;;;;;5057064;28;20041;-46
2022/05/05 07:32:00;;;;;;;11.77;7.88;;;24.40;99.50;;;;;;5054316;28;20025;-46
2022/05/05 07:34:26;;;;;;;32.40;26.50;;;;;;;;;;5060648;28;20090;-46
2022/05/05 07:36:52;;;;;;;19.67;13.35;;;;;;;;;;5057164;28;20469;-46
2022/05/05 07:39:18;;;;;;;10.38;6.88;;;;;;;;;;5056592;28;20029;-46
2022/05/05 07:41:44;;;;;;;8.35;6.13;;;25.40;99.70;;;;;;5034247;28;20049;-45
2022/05/05 07:44:10;;;;;;;10.07;6.45;;;25.50;97.90;;;;;;5055855;28;20024;-45
2022/05/05 07:46:36;;;;;;;12.52;8.13;;;25.30;97.90;;;;;;5055688;28;20122;-45
2022/05/05 07:49:05;;;;;;;9.93;6.65;;;;;;;;;;5053664;28;20032;-45
2022/05/05 07:51:31;;;;;;;9.65;7.43;;;25.60;96.80;;;;;;5056370;28;20469;-45
2022/05/05 07:56:43;;;;;;;14.27;8.95;;;25.40;97.10;;;;;;5057053;28;20039;-45
2022/05/05 07:59:09;;;;;;;9.00;8.00;;;25.40;97.90;;;;;;5052576;28;20032;-46
2022/05/05 08:01:35;;;;;;;7.93;5.75;;;25.20;96.20;;;;;;5055746;28;20032;-46
2022/05/05 08:04:01;;;;;;;8.85;6.03;;;;;;;;;;5052176;28;20404;-45
2022/05/05 08:06:27;;;;;;;9.38;5.72;;;;;;;;;;5054536;28;20074;-46
2022/05/05 08:08:53;;;;;;;6.90;6.03;;;;;;;;;;5050388;28;20040;-45
2022/05/05 08:11:20;;;;;;;7.63;6.05;;;;;;;;;;5056486;28;20121;-45
2022/05/05 08:13:46;;;;;;;8.88;6.03;;;;;;;;;;5055418;28;20111;-45
2022/05/05 08:16:12;;;;;;;6.95;5.97;;;;;;;;;;5053188;28;20025;-47
2022/05/05 08:18:39;;;;;;;9.57;6.57;;;;;;;;;;5055554;28;20039;-46
2022/05/05 08:21:06;;;;;;;12.15;6.50;;;26.90;93.90;;;;;;5053581;28;20033;-46
2022/05/05 08:23:33;;;;;;;11.60;8.32;;;27.00;94.90;;;;;;5016449;28;20044;-46
2022/05/05 08:28:44;;;;;;;19.80;6.95;;;27.70;94.60;;;;;;5056821;28;20039;-45
2022/05/05 08:31:10;;;;;;;8.88;5.43;;;;;;;;;;5054991;28;20059;-46
2022/05/05 08:33:38;;;;;;;6.88;5.55;;;27.00;91.40;;;;;;5056277;28;20024;-46
2022/05/05 08:36:06;;;;;;;11.00;4.93;;;27.40;92.10;;;;;;5056177;28;20033;-46
2022/05/05 08:38:32;;;;;;;11.02;5.68;;;27.80;92.10;;;;;;5035289;28;20040;-46
2022/05/05 08:40:59;;;;;;;7.75;5.50;;;28.00;91.60;;;;;;5056142;28;20024;-46
2022/05/05 08:43:25;;;;;;;8.38;5.15;;;27.90;90.80;;;;;;5051866;28;20028;-47
2022/05/05 08:45:53;;;;;;;7.05;5.05;;;28.30;90.30;;;;;;5054550;28;20060;-46
2022/05/05 08:48:19;;;;;;;10.55;5.80;;;28.40;89.70;;;;;;5054833;28;20103;-46
2022/05/05 08:50:50;;;;;;;11.15;5.55;;;28.70;90.50;;;;;;5055738;28;20447;-45
2022/05/05 08:53:17;;;;;;;8.65;6.85;;;;;;;;;;5045379;28;20053;-46
2022/05/05 08:55:46;;;;;;;13.05;6.85;;;29.00;90.10;;;;;;5057821;28;20021;-46
2022/05/05 08:58:12;;;;;;;7.75;5.60;;;29.10;89.20;;;;;;5058112;28;20029;-46
2022/05/05 09:00:38;;;;;;;8.95;5.43;;;28.80;87.80;;;;;;5054918;28;20025;-46
2022/05/05 09:03:08;;;;;;;6.40;5.05;;;28.70;87.70;;;;;;5020779;28;20035;-46
2022/05/05 09:05:43;;;;;;;8.75;5.65;;;28.50;86.10;;;;;;5055758;28;20460;-47
2022/05/05 09:08:27;;;;;;;7.00;5.57;;;28.90;87.10;;;;;;5051654;28;20116;-45
2022/05/05 09:10:55;;;;;;;10.13;6.28;;;28.60;86.10;;;;;;5055565;28;20040;-46
2022/05/05 09:13:23;;;;;;;8.93;5.78;;;29.30;88.40;;;;;;5054148;28;20119;-45
2022/05/05 09:15:49;;;;;;;10.05;5.93;;;;;;;;;;5054402;28;20079;-46
2022/05/05 09:18:15;;;;;;;7.22;5.63;;;30.50;97.50;;;;;;5051593;28;20672;-46
2022/05/05 09:20:42;;;;;;;8.85;5.57;;;30.70;87.60;;;;;;5052258;28;20076;-46
2022/05/05 09:23:08;;;;;;;6.93;5.10;;;30.50;83.90;;;;;;5040365;28;20048;-46
2022/05/05 09:25:47;;;;;;;9.05;5.85;;;;;;;;;;5053887;28;20029;-46
2022/05/05 09:28:20;;;;;;;9.77;5.35;;;31.00;83.70;;;;;;5054191;28;20125;-46
2022/05/05 09:30:47;;;;;;;10.55;5.05;;;;;;;;;;5053872;28;20068;-46
2022/05/05 09:33:17;;;;;;;8.20;4.88;;;;;;;;;;5044794;28;20116;-45
2022/05/05 09:35:45;;;;;;;6.45;5.10;;;31.70;84.10;;;;;;5057710;28;20057;-46
2022/05/05 09:38:10;;;;;;;6.68;5.05;;;31.80;84.50;;;;;;5051649;28;20353;-46
2022/05/05 09:40:36;;;;;;;12.20;5.18;;;31.80;99.50;;;;;;5053004;28;20029;-45
2022/05/05 09:43:02;;;;;;;10.68;5.43;;;31.50;98.30;;;;;;5054359;28;20024;-45
2022/05/05 09:45:34;;;;;;;9.50;4.85;;;31.50;98.50;;;;;;5030976;28;20048;-45
2022/05/05 09:48:01;;;;;;;9.55;5.18;;;;;;;;;;5029765;28;20040;-45
2022/05/05 09:50:31;;;;;;;8.52;4.65;;;;;;;;;;5054693;28;20519;-45
2022/05/05 09:58:37;;;;;;;8.60;4.88;;;32.00;80.60;;;;;;5054743;28;20539;-47
2022/05/05 10:01:10;;;;;;;7.43;4.40;;;32.60;79.80;;;;;;5057233;28;20025;-47
2022/05/05 10:04:02;;;;;;;7.22;4.78;;;31.80;99.30;;;;;;5056650;28;20017;-46
2022/05/05 10:06:34;;;;;;;6.75;3.92;;;31.80;88.10;;;;;;5052618;28;20484;-46
2022/05/05 10:09:01;;;;;;;10.07;4.18;;;30.80;78.70;;;;;;5058927;28;20537;-46
2022/05/05 10:11:27;;;;;;;7.88;4.20;;;31.30;78.70;;;;;;5049383;28;20049;-47
2022/05/05 10:13:56;;;;;;;8.70;5.72;;;31.20;97.90;;;;;;5054777;28;20053;-48
2022/05/05 10:16:22;;;;;;;6.25;4.10;;;32.10;81.90;;;;;;5056643;28;20032;-46
2022/05/05 10:18:50;;;;;;;6.28;4.15;;;;;;;;;;5057046;28;20025;-47
2022/05/05 10:21:43;;;;;;;7.18;4.22;;;32.60;80.50;;;;;;5059227;28;20440;-45
2022/05/05 10:24:17;;;;;;;9.93;4.60;;;32.70;78.40;;;;;;5056472;28;20028;-46
2022/05/05 10:26:49;;;;;;;5.90;3.67;;;32.50;78.80;;;;;;5056096;28;20032;-46
2022/05/05 10:29:33;;;;;;;;;;;32.30;80.10;;;;;;5059062;28;20032;-46
2022/05/05 10:32:05;;;;;;;7.57;3.65;;;31.10;77.70;;;;;;5072993;28;19935;-46
2022/05/05 10:34:32;;;;;;;6.47;3.83;;;;;;;;;;5042464;28;20036;-46
2022/05/05 10:37:10;;;;;;;5.00;3.67;;;32.10;97.20;;;;;;5054259;28;20039;-46
2022/05/05 10:39:58;;;;;;;6.88;5.22;;;31.70;77.10;;;;;;5057064;28;20381;-46
2022/05/05 10:42:31;;;;;;;5.20;4.18;;;31.20;78.50;;;;;;5054197;28;20111;-46
2022/05/05 10:45:16;;;;;;;4.22;3.60;;;;;;;;;;5052292;28;20036;-46
2022/05/05 10:48:06;;;;;;;5.32;3.78;;;;;;;;;;5059081;28;20029;-46
2022/05/05 10:50:37;;;;;;;6.13;3.50;;;31.10;99.90;;;;;;5028097;28;20053;-46
2022/05/05 10:53:03;;;;;;;4.22;3.75;;;32.20;83.10;;;;;;5038223;28;20424;-47
2022/05/05 10:55:34;;;;;;;4.20;3.22;;;;;;;;;;5045428;28;20040;-47
2022/05/05 10:58:00;;;;;;;4.70;3.00;;;;;;;;;;5027976;28;20037;-46
2022/05/05 11:00:44;;;;;;;4.05;2.33;;;31.60;91.70;;;;;;5005459;28;20064;-46
2022/05/05 11:03:10;;;;;;;4.10;2.80;;;31.50;83.30;;;;;;5015827;28;20048;-46
2022/05/05 11:05:36;;;;;;;6.82;3.80;;;32.80;71.50;;;;;;5044821;28;20025;-46
2022/05/05 11:08:22;;;;;;;6.28;3.25;;;32.60;74.90;;;;;;5043897;28;20041;-46
2022/05/05 11:11:39;;;;;;;6.35;3.72;;;;;;;;;;5020965;28;20419;-46
2022/05/05 11:13:39;;;;;;;6.03;2.90;;;33.40;71.30;;;;;;5041144;28;20036;-47
2022/05/05 11:22:33;;;;;;;6.55;5.18;;;32.30;72.10;;;;;;5044326;28;20075;-46
2022/05/05 11:25:01;;;;;;;6.38;3.67;;;32.40;72.70;;;;;;5030397;28;20044;-46
2022/05/05 11:27:27;;;;;;;6.10;3.17;;;32.20;72.70;;;;;;5046362;28;20029;-47
2022/05/05 11:29:54;;;;;;;7.50;6.85;;;32.70;73.40;;;;;;5058456;28;20046;-46
2022/05/05 11:32:21;;;;;;;6.13;5.15;;;31.70;72.30;;;;;;5054064;28;20028;-46
2022/05/05 11:34:48;;;;;;;5.80;3.00;;;31.20;71.00;;;;;;5054307;28;20044;-46
2022/05/05 11:37:14;;;;;;;4.95;3.00;;;31.20;71.00;;;;;;5061483;28;20526;-47
2022/05/05 11:39:40;;;;;;;6.18;2.80;;;30.90;72.30;;;;;;5055487;28;20592;-46
2022/05/05 11:42:11;;;;;;;4.28;2.83;;;31.00;71.10;;;;;;5008162;28;20040;-46
2022/05/05 11:44:41;;;;;;;5.03;3.00;;;;;;;;;;5053524;28;20021;-46
2022/05/05 11:47:15;;;;;;;4.05;2.58;;;30.60;72.20;;;;;;5052794;28;20056;-46
2022/05/05 11:49:46;;;;;;;4.35;2.60;;;30.70;70.70;;;;;;5008241;28;20045;-46
2022/05/05 11:52:18;;;;;;;3.00;2.17;;;30.40;70.20;;;;;;5054028;28;20461;-46
2022/05/05 11:54:53;;;;;;;4.40;2.25;;;30.60;70.80;;;;;;5053421;28;20041;-47
2022/05/05 11:57:31;;;;;;;3.00;2.50;;;30.70;69.50;;;;;;5060359;28;20048;-47
2022/05/05 12:02:40;;;;;;;6.85;2.80;;;30.30;69.50;;;;;;5040592;28;20494;-47
2022/05/05 12:05:08;;;;;;;5.78;2.80;;;;;;;;;;5054528;28;20056;-46
2022/05/05 12:07:35;;;;;;;13.88;3.60;;;32.00;70.20;;;;;;5019200;28;20104;-46
2022/05/05 12:10:05;;;;;;;5.15;3.05;;;;;;;;;;5056300;28;20040;-47
2022/05/05 12:12:32;;;;;;;3.33;2.75;;;31.60;67.90;;;;;;5052616;28;20031;-47
2022/05/05 12:14:59;;;;;;;14.90;3.33;;;31.30;69.60;;;;;;5064480;28;20461;-46
2022/05/05 12:17:34;;;;;;;5.05;3.00;;;32.40;78.60;;;;;;5054722;28;20476;-46
2022/05/05 12:20:03;;;;;;;10.10;8.45;;;;;;;;;;5056945;28;20082;-45
2022/05/05 12:22:31;;;;;;;7.35;2.50;;;31.90;66.80;;;;;;5053624;28;20464;-46
2022/05/05 12:25:04;;;;;;;4.35;2.67;;;32.70;68.40;;;;;;5055503;28;20405;-46
2022/05/05 12:27:31;;;;;;;9.05;3.67;;;31.80;68.60;;;;;;5055173;28;20040;-46
2022/05/05 12:29:57;;;;;;;4.32;2.85;;;32.50;73.00;;;;;;5057530;28;20127;-46
2022/05/05 12:32:23;;;;;;;4.57;2.90;;;33.60;73.40;;;;;;5051257;28;20082;-46
2022/05/05 12:34:48;;;;;;;7.38;3.10;;;33.20;69.10;;;;;;5038613;28;20033;-46
2022/05/05 12:37:17;;;;;;;3.25;2.40;;;33.40;72.40;;;;;;5053587;28;20531;-46
2022/05/05 12:40:01;;;;;;;4.72;2.70;;;33.20;69.00;;;;;;5051133;28;20389;-46
2022/05/05 12:42:45;;;;;;;7.07;3.35;;;33.20;68.80;;;;;;5040158;28;20057;-47
2022/05/05 12:45:15;;;;;;;2.97;2.45;;;32.50;68.00;;;;;;5057354;28;20035;-46
2022/05/05 12:47:46;;;;;;;3.47;2.25;;;31.20;67.30;;;;;;5036602;28;20039;-46
2022/05/05 12:50:41;;;;;;;4.35;2.95;;;30.90;82.40;;;;;;5059455;28;20068;-46
2022/05/05 13:01:30;;;;;;;5.97;2.40;;;31.40;67.60;;;;;;5054921;28;20072;-47
2022/05/05 13:03:58;;;;;;;7.68;2.90;;;31.40;76.90;;;;;;5053009;28;20033;-46
2022/05/05 13:06:25;;;;;;;5.10;2.65;;;32.10;83.60;;;;;;5055555;28;20029;-46
2022/05/05 13:08:52;;;;;;;4.13;2.60;;;;;;;;;;5058953;28;20342;-46
2022/05/05 13:11:18;;;;;;;5.28;3.13;;;30.70;67.50;;;;;;5051055;28;20144;-47
2022/05/05 13:13:45;;;;;;;6.28;2.88;;;30.10;68.60;;;;;;5070938;28;20537;-46
2022/05/05 13:16:12;;;;;;;5.03;2.40;;;30.10;68.50;;;;;;5057166;28;20075;-45
2022/05/05 13:18:38;;;;;;;4.20;2.65;;;29.80;67.30;;;;;;5050630;28;20033;-47
2022/05/05 13:21:03;;;;;;;6.93;3.33;;;29.50;67.60;;;;;;5055753;28;20021;-46
2022/05/05 13:23:30;;;;;;;5.70;3.15;;;30.00;68.30;;;;;;5055302;28;20112;-46
2022/05/05 13:25:56;;;;;;;5.20;2.88;;;29.70;80.80;;;;;;5058989;28;20058;-46
2022/05/05 13:28:21;;;;;;;7.47;3.28;;;29.90;91.50;;;;;;5060216;28;20111;-46
2022/05/05 13:30:47;;;;;;;6.03;3.95;;;30.10;76.20;;;;;;5058915;28;20588;-46
2022/05/05 13:33:13;;;;;;;9.20;3.13;;;29.90;75.70;;;;;;5057693;28;20025;-46
2022/05/05 13:35:39;;;;;;;4.72;3.15;;;29.90;81.30;;;;;;5060020;28;20029;-46
2022/05/05 13:38:05;;;;;;;5.45;2.95;;;29.90;77.00;;;;;;5059476;28;20024;-46
2022/05/05 13:40:31;;;;;;;4.35;2.60;;;;;;;;;;5039936;28;20044;-46